Des Moines (DSM/KDSM)

Map

Destinations

Information

Location
Des Moines, IA
Local Time
18:23 / 6:23 pm
GMT Time
23:23 / 11:23 pm
Gates
7
No FAA reported delays
METAR KDSM 232254Z 16010KT 10SM FEW055 SCT250 31/17 A2993 RMK AO2 SLP127 T03110172
TAF KDSM 231729Z 2318/2418 18011KT P6SM FEW050 FEW200 FM232330 15007KT P6SM FEW250 FM241600 18008KT P6SM SCT100